Time;durP1;ratioP1;P1;durP2;ratioP2;P2;SDS_P1;SDS_P2;PMS_P1;PMS_P2;Temp;Humidity;BMP_temperature;BMP_pressure;BME280_temperature;BME280_humidity;BME280_pressure;Samples;Min_cycle;Max_cycle;Signal;HPM_P1;HPM_P2
2022/02/27 00:00:58;;;;;;;;;;;6.90;37.60;;;;;;6165344;23;19916;-77
2022/02/27 00:03:25;;;;;;;;;;;6.80;38.20;;;;;;6161161;23;19916;-79
2022/02/27 00:05:52;;;;;;;;;;;6.80;38.30;;;;;;6163941;23;19917;-78
2022/02/27 00:08:19;;;;;;;;;;;6.80;38.50;;;;;;6170894;23;19917;-76
2022/02/27 00:10:45;;;;;;;;;;;6.80;38.10;;;;;;6164087;23;19939;-79
2022/02/27 00:13:13;;;;;;;;;;;6.80;38.40;;;;;;6163045;23;19944;-77
2022/02/27 00:15:40;;;;;;;;;;;6.70;38.30;;;;;;6169753;23;19920;-78
2022/02/27 00:18:07;;;;;;;;;;;6.70;38.30;;;;;;6190505;23;19916;-77
2022/02/27 00:20:34;;;;;;;;;;;6.60;38.70;;;;;;6160021;23;19924;-78
2022/02/27 00:23:00;;;;;;;;;;;6.50;39.80;;;;;;6196976;23;20230;-77
2022/02/27 00:25:27;;;;;;;;;;;6.50;39.30;;;;;;6195900;23;19916;-77
2022/02/27 00:27:54;;;;;;;;;;;6.50;39.40;;;;;;6187612;23;19916;-79
2022/02/27 00:30:23;;;;;;;;;;;6.50;39.60;;;;;;6191259;23;20337;-77
2022/02/27 00:32:50;;;;;;;;;;;6.60;39.70;;;;;;6203042;23;19900;-77
2022/02/27 00:35:16;;;;;;;;;;;6.70;39.50;;;;;;6201213;23;19923;-77
2022/02/27 00:37:44;;;;;;;;;;;6.70;39.60;;;;;;6194720;23;19920;-77
2022/02/27 00:40:11;;;;;;;;;;;6.70;39.90;;;;;;6171264;23;19916;-77
2022/02/27 00:42:38;;;;;;;;;;;6.60;39.80;;;;;;6199361;23;19916;-78
2022/02/27 00:45:05;;;;;;;;;;;6.50;40.40;;;;;;6193156;23;19924;-78
2022/02/27 00:47:32;;;;;;;;;;;6.40;40.70;;;;;;6171979;23;19907;-77
2022/02/27 00:49:59;;;;;;;;;;;6.40;40.70;;;;;;6189231;23;19916;-78
2022/02/27 00:52:26;;;;;;;;;;;6.20;41.00;;;;;;6167426;23;20292;-79
2022/02/27 00:54:54;;;;;;;;;;;6.20;41.30;;;;;;6161795;23;20341;-78
2022/02/27 00:57:23;;;;;;;;;;;6.20;41.30;;;;;;6190321;23;19932;-76
2022/02/27 00:59:50;;;;;;;;;;;6.20;41.30;;;;;;6196216;23;19916;-78
2022/02/27 01:02:17;;;;;;;;;;;6.10;41.30;;;;;;6203855;23;19943;-76
2022/02/27 01:04:44;;;;;;;;;;;6.00;41.50;;;;;;6199037;23;20230;-77
2022/02/27 01:07:11;;;;;;;;;;;6.00;42.20;;;;;;6161619;23;19916;-78
2022/02/27 01:09:38;;;;;;;;;;;6.00;42.60;;;;;;6208380;23;19916;-77
2022/02/27 01:12:05;;;;;;;;;;;6.00;42.80;;;;;;6197383;23;19916;-76
2022/02/27 01:14:32;;;;;;;;;;;6.00;42.80;;;;;;6165998;23;20326;-76
2022/02/27 01:17:01;;;;;;;;;;;6.00;43.10;;;;;;6189025;23;19924;-77
2022/02/27 01:19:29;;;;;;;;;;;6.00;43.20;;;;;;6167458;23;19927;-77
2022/02/27 01:21:56;;;;;;;;;;;6.00;42.70;;;;;;6191702;23;19900;-77
2022/02/27 01:24:23;;;;;;;;;;;6.10;42.80;;;;;;6168885;23;19920;-79
2022/02/27 01:26:49;;;;;;;;;;;6.10;42.80;;;;;;6183979;23;20006;-78
2022/02/27 01:29:16;;;;;;;;;;;6.00;42.80;;;;;;6197243;23;19916;-76
2022/02/27 01:31:43;;;;;;;;;;;6.10;43.10;;;;;;6170901;23;19920;-77
2022/02/27 01:34:10;;;;;;;;;;;6.10;42.60;;;;;;6190432;23;20290;-77
2022/02/27 01:36:36;;;;;;;;;;;6.10;42.80;;;;;;6188427;23;19923;-76
2022/02/27 01:39:03;;;;;;;;;;;6.00;42.70;;;;;;6172136;23;19920;-77
2022/02/27 01:41:31;;;;;;;;;;;6.00;42.70;;;;;;6185831;23;19959;-79
2022/02/27 01:43:58;;;;;;;;;;;5.90;43.10;;;;;;6190723;23;19916;-78
2022/02/27 01:46:25;;;;;;;;;;;5.80;43.80;;;;;;6185317;23;19953;-76
2022/02/27 01:48:52;;;;;;;;;;;5.70;43.80;;;;;;6188336;23;19916;-77
2022/02/27 01:51:18;;;;;;;;;;;5.60;44.20;;;;;;6184063;23;19920;-77
2022/02/27 01:53:45;;;;;;;;;;;5.50;44.50;;;;;;6163964;23;19916;-76
2022/02/27 01:56:12;;;;;;;;;;;5.40;43.90;;;;;;6158940;23;19923;-78
2022/02/27 01:58:41;;;;;;;;;;;5.30;44.20;;;;;;6195520;23;20302;-78
2022/02/27 02:01:08;;;;;;;;;;;5.20;44.20;;;;;;6195244;23;19939;-78
2022/02/27 02:03:35;;;;;;;;;;;5.20;44.30;;;;;;6159401;23;19987;-77
2022/02/27 02:06:01;;;;;;;;;;;5.10;44.80;;;;;;6193156;23;20337;-78
2022/02/27 02:08:28;;;;;;;;;;;4.90;44.50;;;;;;6164291;23;20442;-77
2022/02/27 02:10:55;;;;;;;;;;;4.80;44.70;;;;;;6183118;23;19916;-77
2022/02/27 02:13:22;;;;;;;;;;;4.60;45.10;;;;;;6193590;23;19916;-76
2022/02/27 02:15:55;;;;;;;;;;;4.50;45.00;;;;;;6185314;23;19967;-77
2022/02/27 02:18:23;;;;;;;;;;;4.50;45.20;;;;;;6193438;23;19920;-78
2022/02/27 02:20:49;;;;;;;;;;;4.40;45.80;;;;;;6194393;23;19947;-77
2022/02/27 02:23:16;;;;;;;;;;;4.40;46.40;;;;;;6158493;23;19916;-78
2022/02/27 02:25:43;;;;;;;;;;;4.30;46.70;;;;;;6188371;23;20165;-77
2022/02/27 02:28:10;;;;;;;;;;;4.30;47.30;;;;;;6196139;23;19923;-75
2022/02/27 02:30:36;;;;;;;;;;;4.30;47.20;;;;;;6196337;23;19947;-78
2022/02/27 02:33:03;;;;;;;;;;;4.30;47.60;;;;;;6185256;23;19920;-76
2022/02/27 02:35:30;;;;;;;;;;;4.20;47.30;;;;;;6192835;23;19940;-76
2022/02/27 02:37:57;;;;;;;;;;;4.20;47.50;;;;;;6189886;23;19939;-76
2022/02/27 02:40:25;;;;;;;;;;;4.10;47.30;;;;;;6184438;23;19970;-78
2022/02/27 02:42:54;;;;;;;;;;;4.10;46.50;;;;;;6183313;23;19920;-77
2022/02/27 02:45:20;;;;;;;;;;;4.00;46.40;;;;;;6197342;23;19920;-79
2022/02/27 02:47:48;;;;;;;;;;;4.00;46.30;;;;;;6194317;23;19916;-79
2022/02/27 02:50:15;;;;;;;;;;;3.90;46.10;;;;;;6188498;23;19967;-76
2022/02/27 02:52:42;;;;;;;;;;;3.80;45.40;;;;;;6189576;23;19916;-76
2022/02/27 02:55:10;;;;;;;;;;;3.50;44.00;;;;;;6192728;23;19939;-77
2022/02/27 02:57:37;;;;;;;;;;;3.40;44.40;;;;;;6190570;23;19920;-76
2022/02/27 03:00:05;;;;;;;;;;;3.30;44.80;;;;;;6195142;23;19920;-78
2022/02/27 03:02:32;;;;;;;;;;;3.10;44.90;;;;;;6192886;23;19920;-76
2022/02/27 03:05:00;;;;;;;;;;;3.00;45.40;;;;;;6191123;23;20338;-76
2022/02/27 03:07:27;;;;;;;;;;;2.90;45.40;;;;;;6167706;23;19916;-77
2022/02/27 03:09:54;;;;;;;;;;;2.80;45.30;;;;;;6188950;23;20257;-78
2022/02/27 03:12:20;;;;;;;;;;;2.70;45.00;;;;;;6162728;23;19959;-78
2022/02/27 03:14:49;;;;;;;;;;;2.70;44.80;;;;;;6195042;23;19916;-78
2022/02/27 03:17:15;;;;;;;;;;;2.70;44.30;;;;;;6192769;23;19971;-78
2022/02/27 03:19:42;;;;;;;;;;;2.60;43.60;;;;;;6195711;23;19916;-76
2022/02/27 03:22:09;;;;;;;;;;;2.70;42.50;;;;;;6187478;23;19916;-76
2022/02/27 03:24:36;;;;;;;;;;;2.70;42.30;;;;;;6192218;23;19923;-76
2022/02/27 03:27:03;;;;;;;;;;;2.80;42.50;;;;;;6186319;23;19916;-78
2022/02/27 03:29:30;;;;;;;;;;;2.70;43.10;;;;;;6184382;23;19916;-78
2022/02/27 03:31:57;;;;;;;;;;;2.70;43.10;;;;;;6167562;23;19939;-76
2022/02/27 03:34:23;;;;;;;;;;;2.70;43.10;;;;;;6158390;23;19920;-77
2022/02/27 03:36:50;;;;;;;;;;;2.60;43.50;;;;;;6168230;23;19923;-77
2022/02/27 03:39:17;;;;;;;;;;;2.60;43.60;;;;;;6187519;23;19916;-77
2022/02/27 03:41:43;;;;;;;;;;;2.60;43.90;;;;;;6183278;23;19920;-76
2022/02/27 03:44:11;;;;;;;;;;;2.70;43.70;;;;;;6193768;23;19955;-77
2022/02/27 03:46:38;;;;;;;;;;;2.70;44.10;;;;;;6160928;23;20396;-77
2022/02/27 03:49:05;;;;;;;;;;;2.80;44.80;;;;;;6161086;23;20341;-76
2022/02/27 03:51:33;;;;;;;;;;;2.80;43.10;;;;;;6192515;23;19967;-77
2022/02/27 03:54:00;;;;;;;;;;;2.80;43.70;;;;;;6187467;23;19939;-75
2022/02/27 03:56:27;;;;;;;;;;;2.80;44.00;;;;;;6188032;23;19923;-76
2022/02/27 03:58:54;;;;;;;;;;;2.70;43.50;;;;;;6158535;23;19920;-76
2022/02/27 04:01:20;;;;;;;;;;;2.70;42.60;;;;;;6165375;23;19920;-78
2022/02/27 04:03:47;;;;;;;;;;;2.70;41.90;;;;;;6188463;23;20396;-78
2022/02/27 04:06:14;;;;;;;;;;;2.80;41.50;;;;;;6183866;23;19920;-76
2022/02/27 04:08:41;;;;;;;;;;;2.90;41.00;;;;;;6188430;23;20399;-77
2022/02/27 04:11:07;;;;;;;;;;;3.00;41.30;;;;;;6200350;23;19924;-76
2022/02/27 04:13:34;;;;;;;;;;;3.00;42.00;;;;;;6160757;23;20333;-76
2022/02/27 04:16:01;;;;;;;;;;;2.90;42.80;;;;;;6184878;23;19916;-76
2022/02/27 04:18:28;;;;;;;;;;;2.90;42.90;;;;;;6184478;23;19948;-78
2022/02/27 04:20:55;;;;;;;;;;;2.80;43.60;;;;;;6165219;23;19916;-78
2022/02/27 04:23:23;;;;;;;;;;;2.80;43.00;;;;;;6185626;23;19943;-78
2022/02/27 04:25:50;;;;;;;;;;;2.80;43.90;;;;;;6185061;23;19917;-78
2022/02/27 04:28:16;;;;;;;;;;;2.70;43.70;;;;;;6190429;23;19916;-78
2022/02/27 04:30:43;;;;;;;;;;;2.70;42.60;;;;;;6191486;23;19916;-76
2022/02/27 04:33:10;;;;;;;;;;;2.70;42.20;;;;;;6194206;23;19987;-76
2022/02/27 04:35:37;;;;;;;;;;;2.70;41.90;;;;;;6190844;23;19916;-78
2022/02/27 04:38:03;;;;;;;;;;;2.70;41.80;;;;;;6190412;23;19998;-77
2022/02/27 04:40:33;;;;;;;;;;;2.70;41.70;;;;;;6188977;23;20451;-77
2022/02/27 04:43:01;;;;;;;;;;;2.70;41.80;;;;;;6191319;23;19938;-75
2022/02/27 04:45:30;;;;;;;;;;;2.70;41.30;;;;;;6166255;23;19943;-76
2022/02/27 04:47:56;;;;;;;;;;;2.70;41.40;;;;;;6198058;23;19916;-76
2022/02/27 04:50:23;;;;;;;;;;;2.60;41.20;;;;;;6194593;23;19916;-78
2022/02/27 04:52:50;;;;;;;;;;;2.60;41.40;;;;;;6190569;23;20222;-76
2022/02/27 04:55:17;;;;;;;;;;;2.60;41.90;;;;;;6192815;23;19916;-78
2022/02/27 04:57:44;;;;;;;;;;;2.50;41.90;;;;;;6194918;23;19943;-75
2022/02/27 05:00:11;;;;;;;;;;;2.50;41.60;;;;;;6183909;23;19923;-76
2022/02/27 05:02:38;;;;;;;;;;;2.50;41.90;;;;;;6194665;23;20234;-77
2022/02/27 05:05:05;;;;;;;;;;;2.50;42.00;;;;;;6188614;23;20357;-75
2022/02/27 05:07:32;;;;;;;;;;;2.40;42.40;;;;;;6202052;23;19916;-76
2022/02/27 05:10:00;;;;;;;;;;;2.30;42.70;;;;;;6197922;23;19916;-76
2022/02/27 05:12:27;;;;;;;;;;;2.40;43.00;;;;;;6191460;23;19916;-78
2022/02/27 05:14:54;;;;;;;;;;;2.40;42.60;;;;;;6192702;23;19920;-78
2022/02/27 05:17:34;;;;;;;;;;;2.40;42.60;;;;;;6186412;23;19916;-77
2022/02/27 05:20:01;;;;;;;;;;;2.40;42.60;;;;;;6165472;23;19924;-76
2022/02/27 05:22:27;;;;;;;;;;;2.30;42.50;;;;;;6164019;23;19939;-77
2022/02/27 05:24:55;;;;;;;;;;;2.30;42.30;;;;;;6166137;23;19924;-76
2022/02/27 05:27:22;;;;;;;;;;;2.30;42.40;;;;;;6165095;23;19916;-78
2022/02/27 05:29:48;;;;;;;;;;;2.30;42.50;;;;;;6185726;23;19970;-77
2022/02/27 05:32:16;;;;;;;;;;;2.20;42.20;;;;;;6183274;23;20230;-75
2022/02/27 05:34:44;;;;;;;;;;;2.30;42.20;;;;;;6190220;23;19916;-76
2022/02/27 05:37:11;;;;;;;;;;;2.30;42.30;;;;;;6188846;23;19920;-77
2022/02/27 05:39:38;;;;;;;;;;;2.20;42.50;;;;;;6186441;23;19916;-75
2022/02/27 05:42:05;;;;;;;;;;;2.20;42.70;;;;;;6192548;23;20293;-77
2022/02/27 05:44:33;;;;;;;;;;;2.30;42.60;;;;;;6186170;23;19963;-76
2022/02/27 05:47:00;;;;;;;;;;;2.30;42.60;;;;;;6167273;23;20338;-78
2022/02/27 05:49:27;;;;;;;;;;;2.30;42.20;;;;;;6183410;23;20395;-78
2022/02/27 05:51:54;;;;;;;;;;;2.30;42.30;;;;;;6172696;23;19913;-76
2022/02/27 05:54:20;;;;;;;;;;;2.30;42.10;;;;;;6189590;23;19927;-77
2022/02/27 05:56:47;;;;;;;;;;;2.30;42.20;;;;;;6189486;23;19971;-77
2022/02/27 05:59:14;;;;;;;;;;;2.30;41.90;;;;;;6168804;23;19927;-78
2022/02/27 06:01:41;;;;;;;;;;;2.30;42.00;;;;;;6185358;23;19943;-77
2022/02/27 06:04:08;;;;;;;;;;;2.30;42.20;;;;;;6189875;23;19951;-78
2022/02/27 06:06:35;;;;;;;;;;;2.20;42.30;;;;;;6198083;23;19916;-76
2022/02/27 06:09:02;;;;;;;;;;;2.20;42.30;;;;;;6171964;23;19970;-78
2022/02/27 06:11:28;;;;;;;;;;;2.20;42.60;;;;;;6197770;23;19917;-75
2022/02/27 06:13:56;;;;;;;;;;;2.20;42.60;;;;;;6194289;23;19916;-77
2022/02/27 06:16:22;;;;;;;;;;;2.20;42.00;;;;;;6187074;23;20296;-77
2022/02/27 06:18:49;;;;;;;;;;;2.20;42.00;;;;;;6168281;23;19971;-77
2022/02/27 06:21:16;;;;;;;;;;;2.20;42.10;;;;;;6189830;23;19900;-76
2022/02/27 06:23:43;;;;;;;;;;;2.30;41.80;;;;;;6192143;23;19971;-75
2022/02/27 06:26:10;;;;;;;;;;;2.30;41.60;;;;;;6158947;23;19916;-78
2022/02/27 06:28:37;;;;;;;;;;;2.30;41.70;;;;;;6192928;23;19990;-76
2022/02/27 06:31:04;;;;;;;;;;;2.30;42.00;;;;;;6188187;23;19916;-76
2022/02/27 06:33:31;;;;;;;;;;;2.30;42.00;;;;;;6186800;23;19916;-75
2022/02/27 06:35:58;;;;;;;;;;;2.30;42.00;;;;;;6193290;23;19916;-75
2022/02/27 06:38:31;;;;;;;;;;;2.30;42.80;;;;;;6183030;23;19991;-76
2022/02/27 06:40:58;;;;;;;;;;;2.30;42.70;;;;;;6189119;23;19916;-77
2022/02/27 06:43:26;;;;;;;;;;;2.30;42.30;;;;;;6188230;23;20264;-77
2022/02/27 06:45:53;;;;;;;;;;;2.30;42.40;;;;;;6189381;23;19920;-78
2022/02/27 06:48:20;;;;;;;;;;;2.40;42.20;;;;;;6188454;23;19924;-76
2022/02/27 06:50:46;;;;;;;;;;;2.40;42.00;;;;;;6183416;23;19916;-78
2022/02/27 06:53:13;;;;;;;;;;;2.40;41.70;;;;;;6183915;23;20330;-75
2022/02/27 06:55:40;;;;;;;;;;;2.50;41.80;;;;;;6162277;23;19974;-78
2022/02/27 06:58:08;;;;;;;;;;;2.50;41.60;;;;;;6188039;23;19916;-78
2022/02/27 07:00:35;;;;;;;;;;;2.60;41.60;;;;;;6183962;23;19920;-75
2022/02/27 07:03:02;;;;;;;;;;;2.60;41.60;;;;;;6196405;23;19916;-75
2022/02/27 07:05:29;;;;;;;;;;;2.70;41.20;;;;;;6186373;23;19916;-76
2022/02/27 07:07:56;;;;;;;;;;;2.80;41.60;;;;;;6188463;23;19924;-75
2022/02/27 07:10:22;;;;;;;;;;;2.90;41.00;;;;;;6190069;23;19967;-76
2022/02/27 07:12:52;;;;;;;;;;;3.00;40.80;;;;;;6162832;23;20338;-78
2022/02/27 07:15:19;;;;;;;;;;;3.00;41.10;;;;;;6162041;23;19923;-75
2022/02/27 07:17:46;;;;;;;;;;;3.10;41.00;;;;;;6163147;23;19916;-75
2022/02/27 07:20:15;;;;;;;;;;;3.20;41.00;;;;;;6192913;23;20299;-78
2022/02/27 07:22:42;;;;;;;;;;;3.20;40.90;;;;;;6161809;23;19920;-77
2022/02/27 07:25:09;;;;;;;;;;;3.30;40.00;;;;;;6189511;23;20230;-79
2022/02/27 07:27:36;;;;;;;;;;;3.40;40.80;;;;;;6187641;23;19916;-78
2022/02/27 07:30:03;;;;;;;;;;;3.40;39.90;;;;;;6196272;23;19922;-79
2022/02/27 07:32:30;;;;;;;;;;;3.60;38.70;;;;;;6164307;23;19916;-75
2022/02/27 07:34:58;;;;;;;;;;;3.70;38.80;;;;;;6192828;23;19967;-77
2022/02/27 07:37:25;;;;;;;;;;;3.80;39.20;;;;;;6191330;23;19916;-76
2022/02/27 07:39:52;;;;;;;;;;;3.90;39.30;;;;;;6189010;23;19916;-75
2022/02/27 07:42:21;;;;;;;;;;;4.00;39.20;;;;;;6185968;23;20289;-76
2022/02/27 07:44:48;;;;;;;;;;;4.10;38.30;;;;;;6161559;23;19920;-78
2022/02/27 07:47:15;;;;;;;;;;;4.30;37.40;;;;;;6162558;23;19920;-76
2022/02/27 07:49:42;;;;;;;;;;;4.40;37.50;;;;;;6190415;23;20324;-76
2022/02/27 07:52:09;;;;;;;;;;;4.50;37.30;;;;;;6162776;23;19947;-78
2022/02/27 07:54:36;;;;;;;;;;;4.70;37.70;;;;;;6164041;23;19916;-75
2022/02/27 07:57:03;;;;;;;;;;;4.80;37.50;;;;;;6188111;23;20245;-76
2022/02/27 07:59:30;;;;;;;;;;;5.00;36.50;;;;;;6184098;23;19916;-77
2022/02/27 08:01:57;;;;;;;;;;;5.20;36.50;;;;;;6184252;23;20252;-77
2022/02/27 08:04:24;;;;;;;;;;;5.30;36.20;;;;;;6186528;23;19936;-77
2022/02/27 08:06:51;;;;;;;;;;;5.50;36.10;;;;;;6166717;23;19900;-77
2022/02/27 08:09:17;;;;;;;;;;;5.60;35.30;;;;;;6168357;23;19916;-76
2022/02/27 08:11:44;;;;;;;;;;;5.70;35.30;;;;;;6185441;23;20783;-79
2022/02/27 08:14:11;;;;;;;;;;;5.90;35.30;;;;;;6188770;23;20387;-77
2022/02/27 08:16:38;;;;;;;;;;;6.00;34.80;;;;;;6180329;23;19960;-76
2022/02/27 08:19:05;;;;;;;;;;;6.20;34.50;;;;;;6190672;23;19916;-78
2022/02/27 08:21:32;;;;;;;;;;;6.40;34.70;;;;;;6182720;23;20289;-76
2022/02/27 08:23:59;;;;;;;;;;;6.60;33.90;;;;;;6184754;23;20227;-75
2022/02/27 08:26:26;;;;;;;;;;;6.80;33.70;;;;;;6189503;23;19966;-76
2022/02/27 08:28:53;;;;;;;;;;;6.90;33.80;;;;;;6187887;23;19938;-75
2022/02/27 08:31:20;;;;;;;;;;;7.00;33.50;;;;;;6184511;23;19971;-77
2022/02/27 08:33:46;;;;;;;;;;;7.20;33.70;;;;;;6157072;23;19922;-76
2022/02/27 08:36:15;;;;;;;;;;;7.30;32.90;;;;;;6192947;23;19968;-74
2022/02/27 08:38:43;;;;;;;;;;;7.50;33.70;;;;;;6184167;23;19916;-77
2022/02/27 08:41:10;;;;;;;;;;;7.60;33.80;;;;;;6150162;23;19916;-76
2022/02/27 08:43:39;;;;;;;;;;;7.90;34.30;;;;;;6159673;23;20385;-77
2022/02/27 08:46:05;;;;;;;;;;;8.10;34.10;;;;;;6188966;23;19947;-74
2022/02/27 08:48:32;;;;;;;;;;;8.30;32.70;;;;;;6160994;23;19938;-77
2022/02/27 08:50:59;;;;;;;;;;;8.40;32.50;;;;;;6185632;23;19916;-77
2022/02/27 08:53:26;;;;;;;;;;;8.60;32.00;;;;;;6186304;23;19920;-76
2022/02/27 08:55:53;;;;;;;;;;;8.70;31.60;;;;;;6159065;23;20294;-77
2022/02/27 08:58:20;;;;;;;;;;;8.80;31.00;;;;;;6162671;23;20222;-75
2022/02/27 09:00:46;;;;;;;;;;;8.90;31.30;;;;;;6185415;23;19924;-77
2022/02/27 09:03:14;;;;;;;;;;;9.00;31.20;;;;;;6190237;23;20341;-74
2022/02/27 09:05:43;;;;;;;;;;;9.10;31.30;;;;;;6169283;23;19916;-77
2022/02/27 09:08:10;;;;;;;;;;;9.20;31.20;;;;;;6163400;23;20376;-77
2022/02/27 09:10:36;;;;;;;;;;;9.30;31.30;;;;;;6184745;23;20046;-77
2022/02/27 09:13:03;;;;;;;;;;;9.40;31.80;;;;;;6191932;23;19923;-77
2022/02/27 09:15:30;;;;;;;;;;;9.50;31.40;;;;;;6183421;23;19983;-76
2022/02/27 09:17:57;;;;;;;;;;;9.70;31.50;;;;;;6186820;23;19970;-76
2022/02/27 09:20:24;;;;;;;;;;;9.90;31.60;;;;;;6186015;23;19916;-76
2022/02/27 09:22:51;;;;;;;;;;;10.00;31.70;;;;;;6187655;23;19923;-76
2022/02/27 09:25:17;;;;;;;;;;;10.20;31.80;;;;;;6187822;23;19939;-77
2022/02/27 09:28:04;;;;;;;;;;;10.20;30.80;;;;;;6165673;23;20364;-77
2022/02/27 09:30:31;;;;;;;;;;;10.30;30.50;;;;;;6188713;23;19919;-76
2022/02/27 09:32:58;;;;;;;;;;;10.30;30.60;;;;;;6191969;23;19916;-76
2022/02/27 09:35:28;;;;;;;;;;;10.20;30.20;;;;;;6165639;23;19916;-74
2022/02/27 09:37:56;;;;;;;;;;;10.10;30.50;;;;;;6191319;23;19944;-75
2022/02/27 09:40:24;;;;;;;;;;;10.10;31.20;;;;;;6161338;23;19919;-75
2022/02/27 09:42:54;;;;;;;;;;;10.10;31.20;;;;;;6192279;23;19916;-75
2022/02/27 09:45:21;;;;;;;;;;;10.20;32.00;;;;;;6160744;23;20301;-77
2022/02/27 09:47:49;;;;;;;;;;;10.20;31.50;;;;;;6185697;23;19970;-74
2022/02/27 09:50:16;;;;;;;;;;;10.20;31.90;;;;;;6186981;23;20206;-76
2022/02/27 09:52:44;;;;;;;;;;;10.30;31.90;;;;;;6161423;23;19919;-77
2022/02/27 09:55:12;;;;;;;;;;;10.40;31.70;;;;;;6189140;23;20329;-78
2022/02/27 09:57:39;;;;;;;;;;;10.50;31.90;;;;;;6162554;23;19948;-77
2022/02/27 10:00:08;;;;;;;;;;;10.30;31.30;;;;;;6184683;23;19920;-77
2022/02/27 10:02:55;;;;;;;;;;;10.20;30.80;;;;;;6191829;23;19916;-77
2022/02/27 10:05:25;;;;;;;;;;;10.20;31.70;;;;;;6187675;23;19916;-77
2022/02/27 10:07:59;;;;;;;;;;;10.20;32.50;;;;;;6184309;23;19916;-77
2022/02/27 10:10:26;;;;;;;;;;;10.30;31.80;;;;;;6189316;23;19947;-77
2022/02/27 10:12:53;;;;;;;;;;;10.30;32.80;;;;;;6162087;23;20389;-77
2022/02/27 10:15:19;;;;;;;;;;;10.50;32.40;;;;;;6189024;23;20338;-75
2022/02/27 10:17:49;;;;;;;;;;;10.40;30.40;;;;;;6164277;23;19959;-77
2022/02/27 10:20:16;;;;;;;;;;;10.20;31.10;;;;;;6193760;23;20334;-77
2022/02/27 10:22:44;;;;;;;;;;;10.10;31.50;;;;;;6156989;23;19925;-78
2022/02/27 10:25:16;;;;;;;;;;;10.10;31.70;;;;;;6153036;23;19917;-78
2022/02/27 10:27:47;;;;;;;;;;;10.30;32.80;;;;;;6158617;23;19921;-77
2022/02/27 10:30:15;;;;;;;;;;;10.70;32.70;;;;;;6161233;23;19920;-76
2022/02/27 10:32:48;;;;;;;;;;;10.60;31.40;;;;;;6163572;23;19905;-77
2022/02/27 10:35:34;;;;;;;;;;;10.70;31.70;;;;;;6164593;23;19940;-77
2022/02/27 10:38:01;;;;;;;;;;;10.60;31.50;;;;;;6167280;23;19923;-75
2022/02/27 10:40:31;;;;;;;;;;;10.70;31.80;;;;;;6159869;23;20334;-77
2022/02/27 10:42:59;;;;;;;;;;;10.80;31.20;;;;;;6162815;23;19916;-75
2022/02/27 10:45:26;;;;;;;;;;;11.00;32.10;;;;;;6155823;23;19972;-76
2022/02/27 10:48:12;;;;;;;;;;;11.10;31.50;;;;;;6155417;23;19944;-77
2022/02/27 10:50:39;;;;;;;;;;;11.10;30.70;;;;;;6177286;23;19916;-77
2022/02/27 10:53:07;;;;;;;;;;;11.10;31.20;;;;;;6157068;23;19952;-77
2022/02/27 10:55:35;;;;;;;;;;;11.10;31.10;;;;;;6159211;23;19948;-77
2022/02/27 10:58:03;;;;;;;;;;;11.20;31.50;;;;;;6156925;23;19920;-75
2022/02/27 11:00:30;;;;;;;;;;;11.10;31.70;;;;;;6156144;23;19967;-74
2022/02/27 11:03:04;;;;;;;;;;;11.10;30.60;;;;;;6158619;23;19920;-75
2022/02/27 11:05:33;;;;;;;;;;;11.10;30.80;;;;;;6157282;23;19923;-75
2022/02/27 11:08:04;;;;;;;;;;;11.20;31.70;;;;;;6155148;23;20356;-77
2022/02/27 11:10:32;;;;;;;;;;;11.20;30.70;;;;;;6160494;23;20330;-77
2022/02/27 11:13:03;;;;;;;;;;;11.10;30.50;;;;;;6156841;23;19948;-77
2022/02/27 11:15:30;;;;;;;;;;;11.20;32.30;;;;;;6159556;23;19936;-77
2022/02/27 11:17:57;;;;;;;;;;;11.10;30.60;;;;;;6153922;23;19921;-76
2022/02/27 11:20:24;;;;;;;;;;;11.10;31.50;;;;;;6160317;23;19924;-77
2022/02/27 11:22:53;;;;;;;;;;;11.20;31.50;;;;;;6159956;23;19916;-77
2022/02/27 11:25:21;;;;;;;;;;;11.50;32.70;;;;;;6156209;23;19916;-77
2022/02/27 11:28:06;;;;;;;;;;;11.50;30.60;;;;;;6162419;23;19923;-75
2022/02/27 11:30:34;;;;;;;;;;;11.60;31.10;;;;;;6161430;23;19916;-75
2022/02/27 11:33:07;;;;;;;;;;;11.50;30.60;;;;;;6158385;23;19916;-75
2022/02/27 11:35:35;;;;;;;;;;;11.60;31.00;;;;;;6155549;23;19917;-78
2022/02/27 11:38:03;;;;;;;;;;;11.80;31.20;;;;;;6159657;23;19917;-77
2022/02/27 11:40:38;;;;;;;;;;;11.60;30.30;;;;;;6156575;23;20337;-75
2022/02/27 11:43:05;;;;;;;;;;;11.50;31.50;;;;;;6158723;23;19921;-77
2022/02/27 11:45:32;;;;;;;;;;;11.70;30.70;;;;;;6154136;23;19983;-77
2022/02/27 11:48:00;;;;;;;;;;;11.70;30.40;;;;;;6161824;23;20454;-75
2022/02/27 11:50:28;;;;;;;;;;;11.90;30.00;;;;;;6155100;23;19916;-78
2022/02/27 11:52:55;;;;;;;;;;;12.00;29.90;;;;;;6155070;23;19967;-77
2022/02/27 11:55:53;;;;;;;;;;;12.10;29.90;;;;;;6161896;23;19939;-75
2022/02/27 11:58:38;;;;;;;;;;;11.90;29.90;;;;;;6147651;23;19916;-77
2022/02/27 12:01:06;;;;;;;;;;;12.10;29.90;;;;;;6157020;23;19924;-77
2022/02/27 12:03:35;;;;;;;;;;;12.00;29.50;;;;;;6161777;23;20337;-77
2022/02/27 12:06:04;;;;;;;;;;;12.10;30.00;;;;;;6153371;23;20356;-77
2022/02/27 12:08:50;;;;;;;;;;;12.10;29.60;;;;;;6155292;23;19920;-77
2022/02/27 12:11:33;;;;;;;;;;;12.20;29.30;;;;;;6154720;23;19916;-77
2022/02/27 12:14:01;;;;;;;;;;;12.20;29.10;;;;;;6180350;23;20690;-76
2022/02/27 12:16:37;;;;;;;;;;;12.30;29.10;;;;;;6159999;23;19920;-77
2022/02/27 12:19:04;;;;;;;;;;;12.30;29.00;;;;;;6154491;23;19923;-77
2022/02/27 12:21:31;;;;;;;;;;;12.50;29.60;;;;;;6156034;23;19916;-76
2022/02/27 12:24:07;;;;;;;;;;;12.60;30.00;;;;;;6158231;23;19943;-77
2022/02/27 12:26:36;;;;;;;;;;;12.40;28.50;;;;;;6158538;23;19917;-77
2022/02/27 12:29:03;;;;;;;;;;;12.30;29.10;;;;;;6156464;23;20322;-77
2022/02/27 12:31:32;;;;;;;;;;;12.60;30.00;;;;;;6155651;23;20334;-78
2022/02/27 12:34:07;;;;;;;;;;;12.80;29.50;;;;;;6157502;23;19916;-75
2022/02/27 12:36:37;;;;;;;;;;;12.70;28.00;;;;;;6162487;23;19967;-75
2022/02/27 12:39:09;;;;;;;;;;;12.70;28.30;;;;;;6159340;23;19923;-77
2022/02/27 12:41:37;;;;;;;;;;;12.80;28.80;;;;;;6158261;23;20297;-75
2022/02/27 12:44:05;;;;;;;;;;;12.50;28.30;;;;;;6161297;23;19965;-77
2022/02/27 12:46:32;;;;;;;;;;;12.60;28.70;;;;;;6158075;23;19940;-77
2022/02/27 12:51:45;;;;;;;;;;;12.40;28.10;;;;;;6160935;23;19916;-77
2022/02/27 12:54:19;;;;;;;;;;;12.50;28.30;;;;;;6155191;23;19922;-75
2022/02/27 12:57:02;;;;;;;;;;;12.40;28.20;;;;;;6155472;23;20326;-76
2022/02/27 12:59:37;;;;;;;;;;;12.50;28.30;;;;;;6161577;23;19917;-77
2022/02/27 13:02:12;;;;;;;;;;;12.60;27.80;;;;;;6157996;23;19920;-77
2022/02/27 13:04:39;;;;;;;;;;;12.80;27.90;;;;;;6157561;23;19967;-77
2022/02/27 13:07:08;;;;;;;;;;;12.80;27.40;;;;;;6158855;23;19917;-76
2022/02/27 13:09:35;;;;;;;;;;;12.80;27.60;;;;;;6157579;23;19947;-77
2022/02/27 13:12:08;;;;;;;;;;;12.80;27.30;;;;;;6155362;23;21080;-77
2022/02/27 13:14:35;;;;;;;;;;;12.90;27.90;;;;;;6160241;23;19916;-77
2022/02/27 13:17:08;;;;;;;;;;;13.00;27.20;;;;;;6158937;23;20348;-77
2022/02/27 13:19:36;;;;;;;;;;;13.10;27.20;;;;;;6157226;23;19916;-78
2022/02/27 13:22:04;;;;;;;;;;;13.40;27.90;;;;;;6185304;23;19928;-75
2022/02/27 13:24:32;;;;;;;;;;;13.60;26.20;;;;;;6159147;23;19921;-75
2022/02/27 13:27:02;;;;;;;;;;;13.50;25.90;;;;;;6161040;23;19917;-77
2022/02/27 13:29:30;;;;;;;;;;;13.80;25.90;;;;;;6156528;23;19983;-77
2022/02/27 13:31:57;;;;;;;;;;;14.10;25.40;;;;;;6157959;23;19917;-77
2022/02/27 13:34:24;;;;;;;;;;;14.30;25.30;;;;;;6162201;23;19921;-75
2022/02/27 13:36:51;;;;;;;;;;;14.30;26.20;;;;;;6158993;23;19916;-77
2022/02/27 13:39:33;;;;;;;;;;;14.10;25.60;;;;;;6161930;23;19940;-76
2022/02/27 13:41:59;;;;;;;;;;;14.20;25.40;;;;;;6157669;23;19916;-77
2022/02/27 13:44:27;;;;;;;;;;;14.40;24.80;;;;;;6159157;23;19923;-75
2022/02/27 13:46:54;;;;;;;;;;;14.40;23.80;;;;;;6156588;23;20227;-77
2022/02/27 13:49:22;;;;;;;;;;;14.40;23.00;;;;;;6154850;23;19927;-77
2022/02/27 13:51:49;;;;;;;;;;;14.30;23.70;;;;;;6153365;23;20266;-77
2022/02/27 13:54:22;;;;;;;;;;;14.40;25.30;;;;;;6156613;23;20401;-76
2022/02/27 13:57:09;;;;;;;;;;;14.30;24.90;;;;;;6164896;23;19987;-78
2022/02/27 13:59:39;;;;;;;;;;;14.40;25.40;;;;;;6159437;23;19916;-77
2022/02/27 14:02:06;;;;;;;;;;;14.70;25.00;;;;;;6153270;23;19923;-78
2022/02/27 14:04:33;;;;;;;;;;;14.90;24.40;;;;;;6161335;23;19916;-75
2022/02/27 14:07:01;;;;;;;;;;;15.10;23.60;;;;;;6158334;23;19920;-78
2022/02/27 14:09:28;;;;;;;;;;;15.10;23.50;;;;;;6157168;23;19923;-77
2022/02/27 14:12:04;;;;;;;;;;;14.90;23.10;;;;;;6153214;23;19917;-77
2022/02/27 14:14:39;;;;;;;;;;;14.80;23.80;;;;;;6161361;23;19971;-75
2022/02/27 14:17:19;;;;;;;;;;;14.90;23.40;;;;;;6159536;23;19916;-77
2022/02/27 14:19:47;;;;;;;;;;;15.00;23.80;;;;;;6156128;23;20361;-77
2022/02/27 14:22:19;;;;;;;;;;;14.70;23.60;;;;;;6179423;23;20004;-77
2022/02/27 14:24:49;;;;;;;;;;;14.50;22.80;;;;;;6163191;23;19939;-76
2022/02/27 14:27:17;;;;;;;;;;;14.50;23.80;;;;;;6163855;23;19924;-76
2022/02/27 14:29:44;;;;;;;;;;;14.50;23.70;;;;;;6165440;23;19920;-76
2022/02/27 14:32:25;;;;;;;;;;;14.60;24.10;;;;;;6164582;23;19916;-78
2022/02/27 14:34:52;;;;;;;;;;;14.60;22.90;;;;;;6153852;23;19947;-78